createdAt,value
2022-08-22T00:00:09.596Z,68.17
2022-08-22T00:01:10.867Z,68.07
2022-08-22T00:02:09.634Z,67.84
2022-08-22T00:02:43.755Z,62.05
2022-08-22T00:02:43.756Z,62.85
2022-08-22T00:02:55.136Z,65.02
2022-08-22T00:02:58.275Z,57.74
2022-08-22T00:03:00.889Z,63.65
2022-08-22T00:03:03.567Z,63.99
2022-08-22T00:03:08.441Z,68.44
2022-08-22T00:03:09.132Z,67.33
2022-08-22T00:03:12.457Z,65.73
2022-08-22T00:04:10.563Z,68.04
2022-08-22T00:05:09.528Z,67.43
2022-08-22T00:06:09.533Z,67.43
2022-08-22T00:07:09.496Z,67.23
2022-08-22T00:08:09.498Z,66.90
2022-08-22T00:09:09.556Z,66.80
2022-08-22T00:10:09.457Z,66.70
2022-08-22T00:11:09.582Z,66.80
2022-08-22T00:12:09.491Z,66.60
2022-08-22T00:13:09.472Z,66.60
2022-08-22T00:14:09.607Z,66.60
2022-08-22T00:15:13.238Z,66.50
2022-08-22T00:16:10.481Z,66.50
2022-08-22T00:17:09.475Z,66.50
2022-08-22T00:18:09.400Z,66.50
2022-08-22T00:19:09.458Z,66.50
2022-08-22T00:20:09.423Z,66.27
2022-08-22T00:21:09.396Z,66.80
2022-08-22T00:22:09.407Z,66.50
2022-08-22T00:23:09.436Z,66.90
2022-08-22T00:24:09.313Z,67.20
2022-08-22T00:25:24.612Z,67.10
2022-08-22T00:26:10.322Z,67.00
2022-08-22T00:27:09.268Z,67.00
2022-08-22T00:28:09.325Z,66.90
2022-08-22T00:29:09.340Z,66.80
2022-08-22T00:30:10.926Z,66.80
2022-08-22T00:31:09.256Z,66.80
2022-08-22T00:32:10.358Z,66.80
2022-08-22T00:33:09.268Z,66.80
2022-08-22T00:34:09.199Z,66.50
2022-08-22T00:35:09.279Z,66.60
2022-08-22T00:36:09.202Z,66.50
2022-08-22T00:37:09.156Z,66.80
2022-08-22T00:38:09.134Z,67.30
2022-08-22T00:39:09.124Z,67.50
2022-08-22T00:40:09.134Z,67.84
2022-08-22T00:41:09.165Z,67.94
2022-08-22T00:42:09.097Z,68.34
2022-08-22T00:43:09.061Z,68.54
2022-08-22T00:44:09.045Z,68.14
2022-08-22T00:45:09.025Z,68.37
2022-08-22T00:46:09.066Z,68.37
2022-08-22T00:47:09.021Z,68.98
2022-08-22T00:48:09.047Z,68.98
2022-08-22T00:49:08.980Z,68.57
2022-08-22T00:50:08.989Z,68.88
2022-08-22T00:51:08.996Z,68.68
2022-08-22T00:52:08.998Z,68.68
2022-08-22T00:53:08.964Z,68.88
2022-08-22T00:54:17.926Z,69.38
2022-08-22T00:55:09.930Z,68.98
2022-08-22T00:56:08.929Z,69.31
2022-08-22T00:57:08.918Z,69.72
2022-08-22T00:58:09.956Z,69.31
2022-08-22T00:59:23.256Z,69.52
2022-08-22T01:00:09.881Z,69.72
2022-08-22T01:01:08.905Z,70.12
2022-08-22T01:02:09.045Z,70.02
2022-08-22T01:03:08.839Z,69.95
2022-08-22T01:04:09.004Z,70.15
2022-08-22T01:05:08.894Z,70.36
2022-08-22T01:06:08.839Z,70.26
2022-08-22T01:07:08.932Z,70.66
2022-08-22T01:08:08.830Z,70.46
2022-08-22T01:09:08.808Z,70.15
2022-08-22T01:10:08.905Z,70.02
2022-08-22T01:11:08.975Z,70.15
2022-08-22T01:12:08.756Z,70.15
2022-08-22T01:13:08.769Z,70.56
2022-08-22T01:14:08.741Z,70.26
2022-08-22T01:15:08.735Z,70.06
2022-08-22T01:16:08.715Z,70.66
2022-08-22T01:17:08.688Z,70.46
2022-08-22T01:18:08.675Z,70.46
2022-08-22T01:19:08.668Z,70.66
2022-08-22T01:20:08.674Z,70.56
2022-08-22T01:21:08.685Z,70.86
2022-08-22T01:22:08.648Z,70.76
2022-08-22T01:23:08.627Z,71.57
2022-08-22T01:24:08.594Z,71.06
2022-08-22T01:25:08.611Z,70.96
2022-08-22T01:26:08.574Z,70.96
2022-08-22T01:27:08.564Z,70.96
2022-08-22T01:28:08.598Z,71.17
2022-08-22T01:29:10.480Z,71.57
2022-08-22T01:30:08.545Z,71.26
2022-08-22T01:31:08.518Z,72.17
2022-08-22T01:32:08.486Z,71.50
2022-08-22T01:33:08.496Z,71.50
2022-08-22T01:34:13.094Z,71.80
2022-08-22T01:35:08.457Z,71.70
2022-08-22T01:36:08.486Z,71.91
2022-08-22T01:37:08.427Z,72.00
2022-08-22T01:38:08.467Z,71.80
2022-08-22T01:39:08.421Z,72.31
2022-08-22T01:40:08.547Z,72.11
2022-08-22T01:41:10.470Z,72.31
2022-08-22T01:42:08.390Z,72.41
2022-08-22T01:43:08.398Z,72.24
2022-08-22T01:44:08.383Z,72.55
2022-08-22T01:45:08.349Z,72.55
2022-08-22T01:46:08.338Z,72.55
2022-08-22T01:47:08.345Z,72.75
2022-08-22T01:48:08.344Z,72.85
2022-08-22T01:49:08.320Z,72.95
2022-08-22T01:50:08.391Z,72.95
2022-08-22T01:51:08.282Z,73.05
2022-08-22T01:52:08.280Z,73.28
2022-08-22T01:53:08.264Z,73.69
2022-08-22T01:54:08.252Z,73.39
2022-08-22T01:55:08.241Z,73.39
2022-08-22T01:56:08.261Z,73.59
2022-08-22T01:57:08.227Z,74.19
2022-08-22T01:58:08.244Z,74.10
2022-08-22T01:59:10.032Z,74.19
2022-08-22T02:00:08.233Z,74.23
2022-08-22T02:01:08.212Z,74.43
2022-08-22T02:02:08.173Z,74.54
2022-08-22T02:03:08.154Z,74.74
2022-08-22T02:04:08.154Z,74.74
2022-08-22T02:05:08.152Z,74.84
2022-08-22T02:06:08.094Z,75.14
2022-08-22T02:07:08.084Z,75.14
2022-08-22T02:08:08.175Z,75.34
2022-08-22T02:09:08.087Z,75.55
2022-08-22T02:10:08.098Z,75.55
2022-08-22T02:11:08.057Z,75.45
2022-08-22T02:12:21.477Z,75.38
2022-08-22T02:13:09.062Z,75.48
2022-08-22T02:14:08.045Z,75.58
2022-08-22T02:15:08.015Z,75.68
2022-08-22T02:16:08.005Z,75.79
2022-08-22T02:17:07.990Z,75.48
2022-08-22T02:18:07.970Z,76.19
2022-08-22T02:19:07.998Z,76.19
2022-08-22T02:20:07.955Z,75.89
2022-08-22T02:21:07.939Z,75.68
2022-08-22T02:22:08.866Z,75.68
2022-08-22T02:23:07.910Z,75.79
2022-08-22T02:24:07.920Z,75.79
2022-08-22T02:25:08.978Z,75.68
2022-08-22T02:26:07.894Z,75.65
2022-08-22T02:27:07.859Z,75.55
2022-08-22T02:28:07.860Z,75.34
2022-08-22T02:29:07.877Z,75.55
2022-08-22T02:30:07.816Z,75.34
2022-08-22T02:31:07.808Z,75.24
2022-08-22T02:32:07.829Z,74.94
2022-08-22T02:33:07.834Z,74.84
2022-08-22T02:34:07.777Z,74.94
2022-08-22T02:35:07.847Z,74.74
2022-08-22T02:36:07.772Z,74.80
2022-08-22T02:37:07.769Z,74.80
2022-08-22T02:38:07.731Z,74.70
2022-08-22T02:39:07.755Z,74.74
2022-08-22T02:40:07.787Z,74.84
2022-08-22T02:41:07.811Z,74.94
2022-08-22T02:42:07.671Z,74.94
2022-08-22T02:43:07.730Z,74.84
2022-08-22T02:44:07.669Z,74.74
2022-08-22T02:45:07.678Z,75.04
2022-08-22T02:46:07.690Z,74.84
2022-08-22T02:47:07.612Z,74.84
2022-08-22T02:48:07.628Z,74.84
2022-08-22T02:49:07.729Z,74.74
2022-08-22T02:50:12.764Z,74.74
2022-08-22T02:51:08.662Z,74.84
2022-08-22T02:52:07.605Z,75.14
2022-08-22T02:53:07.544Z,74.94
2022-08-22T02:54:07.598Z,74.94
2022-08-22T02:55:07.555Z,75.04
2022-08-22T02:56:07.517Z,75.14
2022-08-22T02:57:14.048Z,74.94
2022-08-22T02:58:08.513Z,74.84
2022-08-22T02:59:07.518Z,74.94
2022-08-22T03:00:07.476Z,75.14
2022-08-22T03:01:08.516Z,75.24
2022-08-22T03:02:07.455Z,75.24
2022-08-22T03:03:07.466Z,75.14
2022-08-22T03:04:07.447Z,75.24
2022-08-22T03:05:07.423Z,75.45
2022-08-22T03:06:07.428Z,75.24
2022-08-22T03:07:07.486Z,75.24
2022-08-22T03:08:07.376Z,74.94
2022-08-22T03:09:07.374Z,74.60
2022-08-22T03:10:07.388Z,74.50
2022-08-22T03:11:07.336Z,74.60
2022-08-22T03:12:07.345Z,74.50
2022-08-22T03:13:07.318Z,74.70
2022-08-22T03:14:07.298Z,74.70
2022-08-22T03:15:07.292Z,74.90
2022-08-22T03:16:07.299Z,75.24
2022-08-22T03:17:07.281Z,74.94
2022-08-22T03:18:07.248Z,75.34
2022-08-22T03:19:07.228Z,75.34
2022-08-22T03:20:08.222Z,75.85
2022-08-22T03:21:07.241Z,75.79
2022-08-22T03:22:07.268Z,75.79
2022-08-22T03:23:07.179Z,75.99
2022-08-22T03:24:07.184Z,75.99
2022-08-22T03:25:07.214Z,76.32
2022-08-22T03:26:07.457Z,76.73
2022-08-22T03:27:07.259Z,76.63
2022-08-22T03:28:07.152Z,76.93
2022-08-22T03:29:07.132Z,76.83
2022-08-22T03:30:07.091Z,77.14
2022-08-22T03:31:07.135Z,77.37
2022-08-22T03:32:07.071Z,77.48
2022-08-22T03:33:07.122Z,77.78
2022-08-22T03:34:07.047Z,77.78
2022-08-22T03:35:07.062Z,77.68
2022-08-22T03:36:07.046Z,77.54
2022-08-22T03:37:07.046Z,77.24
2022-08-22T03:38:07.050Z,76.93
2022-08-22T03:39:08.315Z,76.73
2022-08-22T03:40:08.063Z,76.83
2022-08-22T03:41:06.973Z,76.83
2022-08-22T03:42:06.986Z,76.93
2022-08-22T03:43:06.984Z,76.83
2022-08-22T03:44:06.979Z,76.73
2022-08-22T03:45:07.640Z,76.83
2022-08-22T03:46:06.924Z,76.83
2022-08-22T03:47:06.915Z,76.83
2022-08-22T03:48:06.942Z,76.93
2022-08-22T03:49:06.916Z,76.83
2022-08-22T03:50:06.887Z,77.03
2022-08-22T03:51:06.895Z,77.03
2022-08-22T03:52:06.835Z,77.03
2022-08-22T03:53:06.851Z,77.03
2022-08-22T03:54:07.883Z,77.14
2022-08-22T03:55:06.813Z,76.93
2022-08-22T03:56:06.796Z,76.83
2022-08-22T03:57:07.807Z,76.73
2022-08-22T03:58:06.826Z,76.83
2022-08-22T03:59:09.945Z,76.73
2022-08-22T04:00:06.762Z,76.73
2022-08-22T04:01:06.806Z,76.93
2022-08-22T04:02:41.919Z,77.03
2022-08-22T04:03:07.748Z,76.93
2022-08-22T04:04:06.700Z,76.93
2022-08-22T04:05:06.839Z,76.93
2022-08-22T04:06:11.451Z,76.93
2022-08-22T04:07:11.149Z,77.03
2022-08-22T04:08:07.697Z,77.03
2022-08-22T04:09:06.650Z,77.03
2022-08-22T04:10:06.665Z,77.03
2022-08-22T04:11:06.619Z,76.73
2022-08-22T04:12:06.609Z,76.70
2022-08-22T04:13:06.598Z,76.59
2022-08-22T04:14:06.662Z,76.90
2022-08-22T04:15:06.570Z,76.93
2022-08-22T04:16:06.580Z,76.70
2022-08-22T04:17:06.604Z,76.73
2022-08-22T04:18:06.589Z,76.83
2022-08-22T04:19:08.066Z,76.83
2022-08-22T04:20:06.545Z,76.93
2022-08-22T04:21:06.487Z,77.24
2022-08-22T04:22:06.577Z,77.34
2022-08-22T04:23:06.462Z,77.54
2022-08-22T04:24:06.472Z,77.68
2022-08-22T04:25:08.176Z,77.78
2022-08-22T04:26:11.971Z,77.98
2022-08-22T04:27:07.455Z,77.98
2022-08-22T04:28:06.477Z,78.08
2022-08-22T04:29:06.425Z,78.08
2022-08-22T04:30:06.404Z,78.08
2022-08-22T04:31:06.494Z,78.08
2022-08-22T04:32:06.346Z,78.19
2022-08-22T04:33:06.414Z,78.28
2022-08-22T04:34:06.335Z,78.39
2022-08-22T04:35:06.383Z,78.28
2022-08-22T04:36:06.349Z,78.19
2022-08-22T04:37:06.335Z,78.39
2022-08-22T04:38:06.334Z,78.73
2022-08-22T04:39:06.285Z,78.93
2022-08-22T04:40:06.305Z,78.93
2022-08-22T04:41:06.252Z,79.13
2022-08-22T04:42:30.823Z,79.47
2022-08-22T04:43:07.246Z,79.58
2022-08-22T04:44:06.210Z,79.58
2022-08-22T04:45:06.217Z,79.68
2022-08-22T04:46:06.195Z,79.78
2022-08-22T04:47:06.213Z,79.68
2022-08-22T04:48:06.192Z,79.78
2022-08-22T04:49:06.157Z,79.88
2022-08-22T04:50:06.152Z,79.88
2022-08-22T04:51:06.179Z,79.88
2022-08-22T04:52:06.103Z,79.88
2022-08-22T04:53:06.098Z,79.78
2022-08-22T04:54:06.129Z,79.88
2022-08-22T04:55:06.072Z,79.78
2022-08-22T04:56:07.643Z,79.88
2022-08-22T04:57:06.078Z,79.88
2022-08-22T04:58:06.138Z,79.85
2022-08-22T04:59:06.044Z,79.85
2022-08-22T05:00:06.104Z,79.74
2022-08-22T05:01:06.011Z,79.64
2022-08-22T05:02:06.099Z,79.44
2022-08-22T05:03:06.004Z,79.24
2022-08-22T05:04:05.985Z,79.13
2022-08-22T05:05:13.415Z,79.10
2022-08-22T05:06:06.950Z,79.10
2022-08-22T05:07:05.970Z,79.10
2022-08-22T05:08:05.976Z,79.00
2022-08-22T05:09:05.927Z,78.89
2022-08-22T05:10:11.612Z,79.00
2022-08-22T05:11:06.915Z,78.89
2022-08-22T05:12:05.942Z,78.89
2022-08-22T05:13:05.872Z,79.10
2022-08-22T05:14:05.891Z,79.10
2022-08-22T05:15:05.856Z,79.30
2022-08-22T05:16:05.861Z,79.30
2022-08-22T05:17:05.823Z,79.20
2022-08-22T05:18:05.834Z,79.20
2022-08-22T05:19:05.814Z,79.30
2022-08-22T05:20:05.784Z,79.30
2022-08-22T05:21:07.601Z,79.20
2022-08-22T05:22:05.786Z,79.10
2022-08-22T05:23:06.045Z,79.00
2022-08-22T05:24:06.736Z,78.79
2022-08-22T05:25:05.714Z,78.79
2022-08-22T05:26:06.090Z,78.79
2022-08-22T05:27:05.705Z,78.75
2022-08-22T05:28:05.843Z,78.66
2022-08-22T05:29:05.686Z,78.66
2022-08-22T05:30:05.665Z,78.55
2022-08-22T05:31:05.650Z,78.45
2022-08-22T05:32:05.625Z,78.55
2022-08-22T05:33:05.630Z,78.35
2022-08-22T05:34:05.633Z,78.35
2022-08-22T05:35:05.625Z,78.25
2022-08-22T05:36:05.634Z,78.11
2022-08-22T05:37:07.226Z,78.01
2022-08-22T05:38:05.580Z,77.91
2022-08-22T05:39:05.546Z,77.71
2022-08-22T05:40:05.608Z,77.71
2022-08-22T05:41:05.518Z,77.40
2022-08-22T05:42:05.508Z,77.47
2022-08-22T05:43:05.497Z,77.26
2022-08-22T05:44:05.482Z,77.26
2022-08-22T05:45:05.513Z,77.26
2022-08-22T05:46:06.526Z,76.97
2022-08-22T05:47:05.459Z,76.86
2022-08-22T05:48:05.450Z,76.82
2022-08-22T05:49:05.452Z,76.42
2022-08-22T05:50:05.435Z,76.32
2022-08-22T05:51:05.429Z,76.02
2022-08-22T05:52:05.398Z,75.88
2022-08-22T05:53:05.391Z,75.68
2022-08-22T05:54:05.386Z,75.78
2022-08-22T05:55:05.359Z,75.68
2022-08-22T05:56:05.366Z,75.48
2022-08-22T05:57:07.950Z,75.13
2022-08-22T05:58:05.326Z,75.04
2022-08-22T05:59:08.173Z,74.22
2022-08-22T06:00:05.325Z,74.19
2022-08-22T06:01:05.292Z,73.89
2022-08-22T06:02:05.404Z,73.35
2022-08-22T06:03:05.295Z,73.35
2022-08-22T06:04:05.264Z,72.64
2022-08-22T06:05:09.872Z,72.61
2022-08-22T06:06:06.230Z,72.00
2022-08-22T06:07:05.246Z,72.00
2022-08-22T06:08:05.320Z,71.60
2022-08-22T06:09:05.243Z,71.40
2022-08-22T06:10:05.239Z,70.89
2022-08-22T06:11:05.181Z,71.06
2022-08-22T06:12:05.185Z,71.06
2022-08-22T06:13:05.148Z,71.06
2022-08-22T06:14:06.202Z,70.73
2022-08-22T06:15:11.984Z,70.22
2022-08-22T06:16:06.155Z,70.32
2022-08-22T06:17:05.155Z,70.32
2022-08-22T06:18:05.101Z,70.22
2022-08-22T06:19:05.172Z,70.22
2022-08-22T06:20:06.088Z,69.59
2022-08-22T06:21:05.047Z,69.59
2022-08-22T06:22:05.063Z,69.69
2022-08-22T06:23:05.030Z,69.59
2022-08-22T06:24:05.039Z,69.15
2022-08-22T06:25:05.050Z,68.75
2022-08-22T06:26:04.989Z,69.05
2022-08-22T06:27:05.034Z,68.78
2022-08-22T06:28:05.047Z,69.29
2022-08-22T06:29:05.008Z,69.69
2022-08-22T06:30:04.981Z,69.69
2022-08-22T06:31:05.009Z,69.38
2022-08-22T06:32:04.953Z,69.49
2022-08-22T06:33:04.920Z,69.59
2022-08-22T06:34:04.909Z,69.56
2022-08-22T06:35:04.900Z,69.15
2022-08-22T06:36:04.888Z,68.95
2022-08-22T06:37:04.892Z,68.91
2022-08-22T06:38:04.850Z,68.51
2022-08-22T06:39:04.851Z,67.78
2022-08-22T06:40:04.888Z,68.15
2022-08-22T06:41:04.821Z,66.77
2022-08-22T06:42:04.851Z,67.27
2022-08-22T06:43:04.783Z,67.81
2022-08-22T06:44:04.781Z,67.68
2022-08-22T06:45:04.766Z,67.58
2022-08-22T06:46:04.766Z,67.68
2022-08-22T06:47:04.754Z,67.18
2022-08-22T06:48:04.926Z,67.24
2022-08-22T06:49:04.713Z,67.21
2022-08-22T06:50:04.727Z,66.71
2022-08-22T06:51:04.705Z,65.97
2022-08-22T06:52:04.692Z,65.97
2022-08-22T06:53:04.701Z,65.24
2022-08-22T06:54:04.704Z,65.41
2022-08-22T06:55:04.645Z,64.21
2022-08-22T06:56:04.646Z,63.70
2022-08-22T06:57:04.637Z,63.60
2022-08-22T06:58:04.614Z,63.37
2022-08-22T06:59:04.645Z,63.57
2022-08-22T07:00:04.595Z,63.34
2022-08-22T07:01:12.019Z,61.74
2022-08-22T07:02:05.670Z,62.77
2022-08-22T07:03:04.566Z,62.97
2022-08-22T07:04:04.550Z,63.04
2022-08-22T07:05:04.571Z,61.94
2022-08-22T07:06:04.518Z,62.31
2022-08-22T07:07:04.517Z,61.28
2022-08-22T07:08:04.520Z,61.85
2022-08-22T07:09:05.754Z,60.75
2022-08-22T07:10:04.483Z,59.98
2022-08-22T07:11:04.519Z,60.78
2022-08-22T07:12:04.461Z,61.18
2022-08-22T07:13:04.452Z,60.55
2022-08-22T07:14:04.433Z,60.22
2022-08-22T07:15:04.435Z,59.95
2022-08-22T07:16:04.431Z,60.95
2022-08-22T07:17:04.559Z,61.15
2022-08-22T07:18:05.338Z,60.85
2022-08-22T07:19:04.370Z,61.05
2022-08-22T07:20:04.370Z,60.75
2022-08-22T07:21:04.382Z,61.08
2022-08-22T07:22:04.364Z,61.55
2022-08-22T07:23:04.341Z,61.22
2022-08-22T07:24:04.320Z,60.10
2022-08-22T07:25:04.322Z,59.69
2022-08-22T07:26:04.282Z,59.89
2022-08-22T07:27:04.814Z,60.10
2022-08-22T07:28:04.377Z,59.79
2022-08-22T07:29:06.791Z,59.79
2022-08-22T07:30:05.644Z,60.72
2022-08-22T07:31:04.235Z,60.32
2022-08-22T07:32:04.230Z,60.52
2022-08-22T07:33:26.047Z,60.82
2022-08-22T07:34:05.197Z,60.75
2022-08-22T07:35:04.177Z,61.05
2022-08-22T07:36:04.165Z,60.82
2022-08-22T07:37:04.163Z,60.99
2022-08-22T07:38:04.152Z,60.49
2022-08-22T07:39:04.157Z,60.19
2022-08-22T07:40:04.167Z,60.19
2022-08-22T07:41:04.127Z,60.29
2022-08-22T07:42:04.143Z,60.29
2022-08-22T07:43:04.077Z,60.06
2022-08-22T07:44:04.091Z,59.64
2022-08-22T07:45:04.101Z,59.31
2022-08-22T07:46:04.074Z,59.98
2022-08-22T07:47:04.056Z,59.98
2022-08-22T07:48:04.032Z,58.15
2022-08-22T07:49:09.661Z,58.03
2022-08-22T07:50:05.050Z,58.40
2022-08-22T07:51:04.062Z,57.40
2022-08-22T07:52:03.991Z,57.20
2022-08-22T07:53:03.982Z,57.07
2022-08-22T07:54:03.962Z,56.98
2022-08-22T07:55:03.951Z,56.68
2022-08-22T07:56:03.961Z,56.85
2022-08-22T07:57:03.924Z,56.35
2022-08-22T07:58:04.164Z,56.25
2022-08-22T07:59:07.986Z,56.95
2022-08-22T08:00:04.919Z,56.45
2022-08-22T08:01:03.906Z,56.02
2022-08-22T08:02:03.908Z,55.73
2022-08-22T08:03:03.872Z,55.33
2022-08-22T08:04:03.838Z,55.85
2022-08-22T08:05:03.833Z,56.55
2022-08-22T08:06:03.824Z,56.32
2022-08-22T08:07:03.870Z,56.23
2022-08-22T08:08:03.794Z,56.00
2022-08-22T08:09:03.786Z,55.70
2022-08-22T08:10:03.776Z,55.40
2022-08-22T08:11:03.769Z,55.50
2022-08-22T08:12:03.756Z,55.70
2022-08-22T08:13:03.770Z,55.57
2022-08-22T08:14:03.736Z,56.20
2022-08-22T08:15:03.719Z,55.80
2022-08-22T08:16:03.717Z,56.07
2022-08-22T08:17:03.697Z,55.38
2022-08-22T08:18:03.678Z,55.27
2022-08-22T08:19:03.698Z,55.70
2022-08-22T08:20:03.669Z,56.42
2022-08-22T08:21:03.677Z,56.59
2022-08-22T08:22:03.717Z,57.09
2022-08-22T08:23:03.649Z,55.87
2022-08-22T08:24:03.634Z,56.04
2022-08-22T08:25:03.632Z,55.35
2022-08-22T08:26:03.602Z,54.93
2022-08-22T08:27:03.580Z,55.22
2022-08-22T08:28:03.571Z,55.40
2022-08-22T08:29:03.560Z,55.62
2022-08-22T08:30:03.602Z,55.72
2022-08-22T08:31:03.536Z,55.00
2022-08-22T08:32:03.521Z,55.02
2022-08-22T08:33:24.712Z,55.22
2022-08-22T08:34:04.509Z,56.04
2022-08-22T08:35:03.481Z,55.85
2022-08-22T08:36:04.068Z,55.12
2022-08-22T08:37:03.465Z,55.69
2022-08-22T08:38:03.470Z,54.60
2022-08-22T08:39:03.444Z,54.80
2022-08-22T08:40:03.495Z,55.40
2022-08-22T08:41:03.426Z,54.17
2022-08-22T08:42:03.435Z,54.68
2022-08-22T08:43:03.401Z,53.58
2022-08-22T08:44:03.385Z,53.88
2022-08-22T08:45:03.378Z,54.21
2022-08-22T08:46:03.370Z,54.60
2022-08-22T08:47:03.357Z,54.57
2022-08-22T08:48:03.386Z,54.38
2022-08-22T08:49:06.302Z,54.47
2022-08-22T08:50:03.318Z,53.66
2022-08-22T08:51:03.307Z,53.36
2022-08-22T08:52:03.307Z,53.45
2022-08-22T08:53:03.293Z,54.28
2022-08-22T08:54:03.306Z,54.87
2022-08-22T08:55:19.829Z,54.17
2022-08-22T08:56:04.259Z,53.96
2022-08-22T08:57:03.240Z,54.05
2022-08-22T08:58:06.617Z,54.15
2022-08-22T08:59:03.243Z,53.98
2022-08-22T09:00:04.242Z,54.57
2022-08-22T09:01:03.282Z,54.47
2022-08-22T09:02:03.193Z,53.85
2022-08-22T09:03:06.863Z,53.75
2022-08-22T09:04:03.182Z,53.96
2022-08-22T09:05:03.151Z,53.83
2022-08-22T09:06:03.173Z,52.81
2022-08-22T09:07:03.122Z,52.91
2022-08-22T09:08:03.215Z,52.91
2022-08-22T09:09:03.112Z,52.69
2022-08-22T09:10:03.086Z,52.59
2022-08-22T09:11:03.090Z,52.09
2022-08-22T09:12:03.119Z,52.09
2022-08-22T09:13:11.670Z,51.87
2022-08-22T09:14:04.069Z,52.26
2022-08-22T09:15:03.038Z,51.97
2022-08-22T09:16:04.926Z,51.87
2022-08-22T09:17:03.034Z,52.39
2022-08-22T09:18:02.996Z,52.09
2022-08-22T09:19:03.007Z,52.26
2022-08-22T09:20:02.968Z,52.07
2022-08-22T09:21:03.980Z,52.24
2022-08-22T09:22:02.998Z,51.35
2022-08-22T09:23:02.974Z,50.73
2022-08-22T09:24:02.927Z,50.43
2022-08-22T09:25:06.312Z,50.53
2022-08-22T09:26:02.902Z,49.84
2022-08-22T09:27:02.919Z,50.53
2022-08-22T09:28:03.918Z,50.43
2022-08-22T09:29:02.880Z,50.34
2022-08-22T09:30:02.850Z,49.54
2022-08-22T09:31:02.860Z,49.64
2022-08-22T09:32:03.848Z,49.54
2022-08-22T09:33:02.825Z,49.84
2022-08-22T09:34:05.289Z,49.91
2022-08-22T09:35:02.827Z,48.90
2022-08-22T09:36:02.791Z,48.71
2022-08-22T09:37:02.782Z,48.53
2022-08-22T09:38:02.764Z,48.93
2022-08-22T09:39:02.743Z,49.10
2022-08-22T09:40:02.803Z,48.24
2022-08-22T09:41:02.723Z,48.51
2022-08-22T09:42:02.801Z,48.02
2022-08-22T09:43:02.880Z,48.71
2022-08-22T09:44:02.703Z,48.93
2022-08-22T09:45:02.804Z,48.83
2022-08-22T09:46:02.697Z,48.80
2022-08-22T09:47:02.654Z,48.21
2022-08-22T09:48:07.163Z,48.14
2022-08-22T09:49:05.421Z,48.03
2022-08-22T09:50:02.635Z,48.31
2022-08-22T09:51:28.312Z,48.11
2022-08-22T09:52:05.342Z,48.58
2022-08-22T09:53:03.598Z,47.08
2022-08-22T09:54:02.591Z,46.88
2022-08-22T09:55:02.568Z,46.19
2022-08-22T09:56:11.582Z,45.79
2022-08-22T09:57:03.556Z,46.11
2022-08-22T09:58:02.538Z,46.73
2022-08-22T09:59:02.528Z,46.63
2022-08-22T10:00:02.509Z,45.94
2022-08-22T10:01:02.551Z,46.41
2022-08-22T10:02:02.567Z,46.01
2022-08-22T10:03:02.651Z,45.79
2022-08-22T10:04:02.480Z,45.70
2022-08-22T10:05:02.506Z,45.48
2022-08-22T10:06:02.460Z,45.57
2022-08-22T10:07:02.439Z,45.08
2022-08-22T10:08:02.461Z,45.08
2022-08-22T10:09:02.412Z,44.29
2022-08-22T10:10:02.423Z,44.69
2022-08-22T10:11:02.413Z,44.79
2022-08-22T10:12:02.395Z,44.57
2022-08-22T10:13:02.444Z,43.88
2022-08-22T10:14:02.383Z,43.80
2022-08-22T10:15:02.348Z,43.90
2022-08-22T10:16:02.335Z,44.91
2022-08-22T10:17:02.333Z,44.49
2022-08-22T10:18:02.337Z,45.79
2022-08-22T10:19:02.308Z,44.89
2022-08-22T10:20:02.294Z,44.89
2022-08-22T10:21:02.287Z,45.38
2022-08-22T10:22:02.269Z,43.80
2022-08-22T10:23:02.625Z,42.91
2022-08-22T10:24:02.275Z,42.32
2022-08-22T10:25:03.259Z,42.32
2022-08-22T10:26:02.228Z,42.22
2022-08-22T10:27:02.218Z,41.71
2022-08-22T10:28:02.189Z,43.01
2022-08-22T10:29:02.197Z,43.21
2022-08-22T10:30:02.221Z,42.91
2022-08-22T10:31:02.185Z,43.19
2022-08-22T10:32:05.990Z,42.89
2022-08-22T10:33:03.149Z,40.80
2022-08-22T10:34:02.141Z,40.90
2022-08-22T10:35:02.121Z,40.80
2022-08-22T10:36:05.081Z,41.69
2022-08-22T10:37:02.100Z,41.89
2022-08-22T10:38:02.086Z,42.08
2022-08-22T10:39:11.071Z,42.28
2022-08-22T10:40:03.123Z,41.89
2022-08-22T10:41:02.052Z,41.00
2022-08-22T10:42:02.071Z,41.30
2022-08-22T10:43:02.032Z,41.30
2022-08-22T10:44:04.227Z,42.32
2022-08-22T10:45:02.016Z,42.69
2022-08-22T10:46:02.003Z,41.91
2022-08-22T10:47:01.984Z,42.64
2022-08-22T10:48:01.998Z,42.93
2022-08-22T10:49:08.063Z,42.72
2022-08-22T10:50:02.958Z,42.28
2022-08-22T10:51:02.947Z,41.89
2022-08-22T10:52:14.767Z,42.58
2022-08-22T10:53:02.956Z,42.38
2022-08-22T10:54:01.897Z,41.77
2022-08-22T10:55:01.899Z,42.00
2022-08-22T10:56:02.898Z,42.34
2022-08-22T10:57:01.868Z,43.13
2022-08-22T10:58:01.957Z,42.83
2022-08-22T10:59:01.868Z,42.93
2022-08-22T11:00:01.834Z,41.83
2022-08-22T11:01:01.886Z,42.20
2022-08-22T11:02:02.840Z,41.61
2022-08-22T11:03:01.956Z,42.28
2022-08-22T11:04:01.790Z,42.54
2022-08-22T11:05:01.834Z,40.64
2022-08-22T11:06:01.772Z,39.34
2022-08-22T11:07:01.770Z,38.66
2022-08-22T11:08:01.743Z,38.54
2022-08-22T11:09:01.733Z,39.42
2022-08-22T11:10:01.733Z,39.21
2022-08-22T11:11:01.754Z,38.62
2022-08-22T11:12:01.702Z,38.82
2022-08-22T11:13:01.691Z,37.84
2022-08-22T11:14:01.673Z,38.03
2022-08-22T11:15:03.066Z,38.84
2022-08-22T11:16:04.285Z,39.48
2022-08-22T11:17:01.665Z,39.95
2022-08-22T11:18:02.634Z,39.48
2022-08-22T11:19:02.834Z,39.47
2022-08-22T11:20:01.627Z,38.78
2022-08-22T11:21:01.608Z,37.97
2022-08-22T11:22:01.629Z,38.76
2022-08-22T11:23:01.687Z,38.17
2022-08-22T11:24:01.568Z,38.07
2022-08-22T11:25:04.405Z,37.67
2022-08-22T11:26:01.547Z,37.85
2022-08-22T11:27:01.543Z,37.34
2022-08-22T11:28:01.559Z,37.44
2022-08-22T11:29:11.309Z,35.66
2022-08-22T11:30:02.524Z,37.24
2022-08-22T11:31:01.492Z,37.05
2022-08-22T11:32:05.614Z,37.32
2022-08-22T11:33:01.704Z,36.63
2022-08-22T11:34:01.454Z,36.52
2022-08-22T11:35:01.463Z,37.23
2022-08-22T11:36:04.450Z,36.42
2022-08-22T11:37:01.423Z,36.22
2022-08-22T11:38:01.428Z,35.62
2022-08-22T11:39:01.424Z,35.33
2022-08-22T11:40:01.502Z,34.54
2022-08-22T11:41:01.373Z,34.93
2022-08-22T11:42:01.397Z,35.02
2022-08-22T11:43:03.143Z,34.81
2022-08-22T11:44:01.344Z,35.52
2022-08-22T11:45:01.374Z,34.66
2022-08-22T11:46:01.384Z,35.36
2022-08-22T11:47:01.324Z,35.38
2022-08-22T11:48:01.306Z,35.77
2022-08-22T11:49:01.380Z,35.97
2022-08-22T11:50:01.277Z,36.15
2022-08-22T11:51:01.288Z,35.93
2022-08-22T11:52:01.277Z,35.72
2022-08-22T11:53:01.483Z,35.03
2022-08-22T11:54:01.237Z,35.74
2022-08-22T11:55:01.229Z,36.32
2022-08-22T11:56:01.241Z,35.34
2022-08-22T11:57:01.203Z,35.85
2022-08-22T11:58:01.193Z,35.95
2022-08-22T11:59:01.179Z,35.85
2022-08-22T12:00:01.192Z,36.28
2022-08-22T12:01:01.157Z,36.49
2022-08-22T12:02:01.233Z,37.10
2022-08-22T12:03:01.385Z,37.59
2022-08-22T12:04:01.143Z,37.49
2022-08-22T12:05:01.113Z,38.09
2022-08-22T12:06:01.105Z,37.28
2022-08-22T12:07:01.099Z,37.55
2022-08-22T12:08:01.105Z,36.97
2022-08-22T12:09:01.076Z,36.97
2022-08-22T12:10:01.088Z,37.10
2022-08-22T12:11:01.058Z,37.59
2022-08-22T12:12:01.053Z,38.28
2022-08-22T12:13:01.362Z,37.38
2022-08-22T12:14:03.951Z,37.24
2022-08-22T12:15:02.022Z,36.07
2022-08-22T12:16:00.995Z,36.34
2022-08-22T12:17:00.990Z,35.44
2022-08-22T12:18:01.438Z,35.44
2022-08-22T12:19:01.001Z,36.83
2022-08-22T12:20:16.114Z,36.05
2022-08-22T12:21:01.937Z,35.66
2022-08-22T12:22:00.933Z,35.83
2022-08-22T12:23:01.146Z,35.46
2022-08-22T12:24:00.931Z,35.75
2022-08-22T12:25:03.117Z,35.85
2022-08-22T12:26:00.890Z,35.46
2022-08-22T12:27:00.880Z,35.36
2022-08-22T12:28:00.901Z,35.24
2022-08-22T12:29:00.852Z,35.05
2022-08-22T12:30:00.856Z,35.13
2022-08-22T12:31:00.872Z,34.25
2022-08-22T12:32:00.814Z,35.05
2022-08-22T12:33:01.091Z,34.67
2022-08-22T12:34:00.797Z,35.49
2022-08-22T12:35:00.801Z,36.59
2022-08-22T12:36:00.773Z,37.01
2022-08-22T12:37:00.786Z,36.61
2022-08-22T12:38:00.753Z,36.80
2022-08-22T12:39:00.742Z,37.41
2022-08-22T12:40:00.796Z,36.72
2022-08-22T12:41:00.757Z,37.10
2022-08-22T12:42:00.733Z,36.61
2022-08-22T12:43:00.724Z,36.61
2022-08-22T12:44:00.687Z,36.88